sensor_id;sensor_type;location;lat;lon;timestamp;temperature;humidity
216;HTU21D;70668;48.81286795;9.14184224;2023-12-29T00:00:05;9.49;91.95
216;HTU21D;70668;48.81286795;9.14184224;2023-12-29T00:02:36;9.48;92.14
216;HTU21D;70668;48.81286795;9.14184224;2023-12-29T00:05:05;9.49;91.89
216;HTU21D;70668;48.81286795;9.14184224;2023-12-29T00:07:33;9.37;92.72
216;HTU21D;70668;48.81286795;9.14184224;2023-12-29T00:10:02;9.49;91.39
216;HTU21D;70668;48.81286795;9.14184224;2023-12-29T00:12:34;9.52;90.97
216;HTU21D;70668;48.81286795;9.14184224;2023-12-29T00:15:03;9.61;90.46
216;HTU21D;70668;48.81286795;9.14184224;2023-12-29T00:17:31;9.62;90.39
216;HTU21D;70668;48.81286795;9.14184224;2023-12-29T00:20:03;9.64;90.86
216;HTU21D;70668;48.81286795;9.14184224;2023-12-29T00:22:33;9.56;90.65
216;HTU21D;70668;48.81286795;9.14184224;2023-12-29T00:25:01;9.56;90.89
216;HTU21D;70668;48.81286795;9.14184224;2023-12-29T00:27:33;9.56;91.47
216;HTU21D;70668;48.81286795;9.14184224;2023-12-29T00:30:04;9.53;90.18
216;HTU21D;70668;48.81286795;9.14184224;2023-12-29T00:32:34;9.56;91.02
216;HTU21D;70668;48.81286795;9.14184224;2023-12-29T00:35:03;9.56;90.57
216;HTU21D;70668;48.81286795;9.14184224;2023-12-29T00:37:32;9.52;90.53
216;HTU21D;70668;48.81286795;9.14184224;2023-12-29T00:40:00;9.48;90.78
216;HTU21D;70668;48.81286795;9.14184224;2023-12-29T00:42:33;9.51;90.34
216;HTU21D;70668;48.81286795;9.14184224;2023-12-29T00:45:02;9.57;90.02
216;HTU21D;70668;48.81286795;9.14184224;2023-12-29T00:47:30;9.57;90.30
216;HTU21D;70668;48.81286795;9.14184224;2023-12-29T00:49:59;9.60;90.37
216;HTU21D;70668;48.81286795;9.14184224;2023-12-29T00:52:28;9.59;89.88
216;HTU21D;70668;48.81286795;9.14184224;2023-12-29T00:54:56;9.51;89.95
216;HTU21D;70668;48.81286795;9.14184224;2023-12-29T00:57:25;9.60;90.15
216;HTU21D;70668;48.81286795;9.14184224;2023-12-29T00:59:56;9.59;89.75
216;HTU21D;70668;48.81286795;9.14184224;2023-12-29T01:02:24;9.67;89.53
216;HTU21D;70668;48.81286795;9.14184224;2023-12-29T01:04:52;9.61;90.31
216;HTU21D;70668;48.81286795;9.14184224;2023-12-29T01:07:21;9.55;90.86
216;HTU21D;70668;48.81286795;9.14184224;2023-12-29T01:09:49;9.71;89.38
216;HTU21D;70668;48.81286795;9.14184224;2023-12-29T01:12:18;9.75;88.70
216;HTU21D;70668;48.81286795;9.14184224;2023-12-29T01:14:46;9.70;89.48
216;HTU21D;70668;48.81286795;9.14184224;2023-12-29T01:17:18;9.69;89.09
216;HTU21D;70668;48.81286795;9.14184224;2023-12-29T01:19:47;9.67;90.11
216;HTU21D;70668;48.81286795;9.14184224;2023-12-29T01:22:16;9.67;89.63
216;HTU21D;70668;48.81286795;9.14184224;2023-12-29T01:24:44;9.72;89.02
216;HTU21D;70668;48.81286795;9.14184224;2023-12-29T01:27:13;9.75;88.14
216;HTU21D;70668;48.81286795;9.14184224;2023-12-29T01:29:41;9.71;88.99
216;HTU21D;70668;48.81286795;9.14184224;2023-12-29T01:32:10;9.77;88.03
216;HTU21D;70668;48.81286795;9.14184224;2023-12-29T01:34:41;9.76;87.61
216;HTU21D;70668;48.81286795;9.14184224;2023-12-29T01:37:09;9.78;88.23
216;HTU21D;70668;48.81286795;9.14184224;2023-12-29T01:39:38;9.83;87.45
216;HTU21D;70668;48.81286795;9.14184224;2023-12-29T01:42:07;9.82;87.08
216;HTU21D;70668;48.81286795;9.14184224;2023-12-29T01:44:36;9.81;87.24
216;HTU21D;70668;48.81286795;9.14184224;2023-12-29T01:47:11;9.80;87.83
216;HTU21D;70668;48.81286795;9.14184224;2023-12-29T01:49:46;9.75;87.79
216;HTU21D;70668;48.81286795;9.14184224;2023-12-29T01:52:17;9.80;87.44
216;HTU21D;70668;48.81286795;9.14184224;2023-12-29T01:54:47;9.80;87.77
216;HTU21D;70668;48.81286795;9.14184224;2023-12-29T01:57:16;9.77;87.17
216;HTU21D;70668;48.81286795;9.14184224;2023-12-29T01:59:45;9.79;87.73
216;HTU21D;70668;48.81286795;9.14184224;2023-12-29T02:02:15;9.83;87.24
216;HTU21D;70668;48.81286795;9.14184224;2023-12-29T02:04:46;9.79;87.51
216;HTU21D;70668;48.81286795;9.14184224;2023-12-29T02:07:15;9.78;87.31
216;HTU21D;70668;48.81286795;9.14184224;2023-12-29T02:09:45;9.70;88.12
216;HTU21D;70668;48.81286795;9.14184224;2023-12-29T02:12:15;9.79;87.65
216;HTU21D;70668;48.81286795;9.14184224;2023-12-29T02:14:45;9.78;87.65
216;HTU21D;70668;48.81286795;9.14184224;2023-12-29T02:17:17;9.82;88.18
216;HTU21D;70668;48.81286795;9.14184224;2023-12-29T02:19:52;9.83;87.33
216;HTU21D;70668;48.81286795;9.14184224;2023-12-29T02:22:21;9.89;87.18
216;HTU21D;70668;48.81286795;9.14184224;2023-12-29T02:24:52;9.90;88.57
216;HTU21D;70668;48.81286795;9.14184224;2023-12-29T02:27:27;9.82;88.15
216;HTU21D;70668;48.81286795;9.14184224;2023-12-29T02:30:11;9.85;87.60
216;HTU21D;70668;48.81286795;9.14184224;2023-12-29T02:32:43;9.88;87.75
216;HTU21D;70668;48.81286795;9.14184224;2023-12-29T02:35:18;9.90;87.82
216;HTU21D;70668;48.81286795;9.14184224;2023-12-29T02:37:47;9.90;87.29
216;HTU21D;70668;48.81286795;9.14184224;2023-12-29T02:40:19;9.88;87.76
216;HTU21D;70668;48.81286795;9.14184224;2023-12-29T02:42:49;9.86;87.11
216;HTU21D;70668;48.81286795;9.14184224;2023-12-29T02:45:18;9.89;87.83
216;HTU21D;70668;48.81286795;9.14184224;2023-12-29T02:47:47;9.83;87.40
216;HTU21D;70668;48.81286795;9.14184224;2023-12-29T02:50:16;9.85;87.32
216;HTU21D;70668;48.81286795;9.14184224;2023-12-29T02:52:45;9.80;87.89
216;HTU21D;70668;48.81286795;9.14184224;2023-12-29T02:55:14;9.90;87.56
216;HTU21D;70668;48.81286795;9.14184224;2023-12-29T02:57:45;9.76;88.33
216;HTU21D;70668;48.81286795;9.14184224;2023-12-29T03:00:14;9.76;88.51
216;HTU21D;70668;48.81286795;9.14184224;2023-12-29T03:02:43;9.75;89.18
216;HTU21D;70668;48.81286795;9.14184224;2023-12-29T03:05:11;9.74;89.77
216;HTU21D;70668;48.81286795;9.14184224;2023-12-29T03:07:40;9.67;90.89
216;HTU21D;70668;48.81286795;9.14184224;2023-12-29T03:10:09;9.62;91.22
216;HTU21D;70668;48.81286795;9.14184224;2023-12-29T03:12:38;9.63;91.27
216;HTU21D;70668;48.81286795;9.14184224;2023-12-29T03:15:09;9.63;91.56
216;HTU21D;70668;48.81286795;9.14184224;2023-12-29T03:17:38;9.69;90.92
216;HTU21D;70668;48.81286795;9.14184224;2023-12-29T03:20:07;9.66;91.27
216;HTU21D;70668;48.81286795;9.14184224;2023-12-29T03:22:36;9.67;91.12
216;HTU21D;70668;48.81286795;9.14184224;2023-12-29T03:25:05;9.63;91.18
216;HTU21D;70668;48.81286795;9.14184224;2023-12-29T03:27:34;9.68;91.16
216;HTU21D;70668;48.81286795;9.14184224;2023-12-29T03:30:03;9.57;91.54
216;HTU21D;70668;48.81286795;9.14184224;2023-12-29T03:32:34;9.50;91.92
216;HTU21D;70668;48.81286795;9.14184224;2023-12-29T03:35:03;9.53;92.08
216;HTU21D;70668;48.81286795;9.14184224;2023-12-29T03:37:32;9.49;92.10
216;HTU21D;70668;48.81286795;9.14184224;2023-12-29T03:40:00;9.44;93.01
216;HTU21D;70668;48.81286795;9.14184224;2023-12-29T03:42:29;9.42;92.54
216;HTU21D;70668;48.81286795;9.14184224;2023-12-29T03:44:59;9.45;92.50
216;HTU21D;70668;48.81286795;9.14184224;2023-12-29T03:47:28;9.38;93.30
216;HTU21D;70668;48.81286795;9.14184224;2023-12-29T03:49:59;9.36;93.42
216;HTU21D;70668;48.81286795;9.14184224;2023-12-29T03:52:29;9.40;93.17
216;HTU21D;70668;48.81286795;9.14184224;2023-12-29T03:54:57;9.44;93.04
216;HTU21D;70668;48.81286795;9.14184224;2023-12-29T03:57:26;9.44;93.11
216;HTU21D;70668;48.81286795;9.14184224;2023-12-29T03:59:55;9.51;93.08
216;HTU21D;70668;48.81286795;9.14184224;2023-12-29T04:02:23;9.49;93.18
216;HTU21D;70668;48.81286795;9.14184224;2023-12-29T04:04:51;9.56;93.03
216;HTU21D;70668;48.81286795;9.14184224;2023-12-29T04:07:22;9.47;93.51
216;HTU21D;70668;48.81286795;9.14184224;2023-12-29T04:09:51;9.46;94.48
216;HTU21D;70668;48.81286795;9.14184224;2023-12-29T04:12:19;9.44;95.17
216;HTU21D;70668;48.81286795;9.14184224;2023-12-29T04:14:48;9.48;95.27
216;HTU21D;70668;48.81286795;9.14184224;2023-12-29T04:17:16;9.35;95.63
216;HTU21D;70668;48.81286795;9.14184224;2023-12-29T04:19:46;9.38;95.03
216;HTU21D;70668;48.81286795;9.14184224;2023-12-29T04:22:14;9.38;95.68
216;HTU21D;70668;48.81286795;9.14184224;2023-12-29T04:24:45;9.37;95.26
216;HTU21D;70668;48.81286795;9.14184224;2023-12-29T04:27:14;9.38;95.46
216;HTU21D;70668;48.81286795;9.14184224;2023-12-29T04:29:43;9.36;95.65
216;HTU21D;70668;48.81286795;9.14184224;2023-12-29T04:32:11;9.32;95.95
216;HTU21D;70668;48.81286795;9.14184224;2023-12-29T04:34:41;9.30;96.58
216;HTU21D;70668;48.81286795;9.14184224;2023-12-29T04:37:10;9.21;97.21
216;HTU21D;70668;48.81286795;9.14184224;2023-12-29T04:39:38;9.24;97.60
216;HTU21D;70668;48.81286795;9.14184224;2023-12-29T04:42:10;9.24;97.55
216;HTU21D;70668;48.81286795;9.14184224;2023-12-29T04:44:38;9.19;97.93
216;HTU21D;70668;48.81286795;9.14184224;2023-12-29T04:47:06;9.16;97.83
216;HTU21D;70668;48.81286795;9.14184224;2023-12-29T04:49:35;9.18;97.71
216;HTU21D;70668;48.81286795;9.14184224;2023-12-29T04:52:04;9.31;97.45
216;HTU21D;70668;48.81286795;9.14184224;2023-12-29T04:54:33;9.19;98.47
216;HTU21D;70668;48.81286795;9.14184224;2023-12-29T04:57:02;9.20;98.00
216;HTU21D;70668;48.81286795;9.14184224;2023-12-29T04:59:33;9.30;97.57
216;HTU21D;70668;48.81286795;9.14184224;2023-12-29T05:02:02;9.30;97.68
216;HTU21D;70668;48.81286795;9.14184224;2023-12-29T05:04:31;9.37;96.97
216;HTU21D;70668;48.81286795;9.14184224;2023-12-29T05:06:59;9.34;97.26
216;HTU21D;70668;48.81286795;9.14184224;2023-12-29T05:09:28;9.42;96.90
216;HTU21D;70668;48.81286795;9.14184224;2023-12-29T05:11:56;9.29;97.74
216;HTU21D;70668;48.81286795;9.14184224;2023-12-29T05:14:25;9.31;97.95
216;HTU21D;70668;48.81286795;9.14184224;2023-12-29T05:16:56;9.29;98.11
216;HTU21D;70668;48.81286795;9.14184224;2023-12-29T05:19:24;9.31;97.87
216;HTU21D;70668;48.81286795;9.14184224;2023-12-29T05:21:52;9.25;98.15
216;HTU21D;70668;48.81286795;9.14184224;2023-12-29T05:24:21;9.26;98.55
216;HTU21D;70668;48.81286795;9.14184224;2023-12-29T05:26:49;9.29;99.09
216;HTU21D;70668;48.81286795;9.14184224;2023-12-29T05:29:18;9.23;99.32
216;HTU21D;70668;48.81286795;9.14184224;2023-12-29T05:31:46;9.20;100.49
216;HTU21D;70668;48.81286795;9.14184224;2023-12-29T05:34:17;9.20;101.03
216;HTU21D;70668;48.81286795;9.14184224;2023-12-29T05:36:46;9.27;101.79
216;HTU21D;70668;48.81286795;9.14184224;2023-12-29T05:39:14;9.17;101.70
216;HTU21D;70668;48.81286795;9.14184224;2023-12-29T05:41:43;9.12;102.13
216;HTU21D;70668;48.81286795;9.14184224;2023-12-29T05:44:11;9.20;101.98
216;HTU21D;70668;48.81286795;9.14184224;2023-12-29T05:46:39;9.14;102.11
216;HTU21D;70668;48.81286795;9.14184224;2023-12-29T05:49:08;9.06;102.95
216;HTU21D;70668;48.81286795;9.14184224;2023-12-29T05:51:40;9.08;103.44
216;HTU21D;70668;48.81286795;9.14184224;2023-12-29T05:54:09;9.09;104.59
216;HTU21D;70668;48.81286795;9.14184224;2023-12-29T05:56:38;9.00;105.40
216;HTU21D;70668;48.81286795;9.14184224;2023-12-29T05:59:06;9.04;104.89
216;HTU21D;70668;48.81286795;9.14184224;2023-12-29T06:01:35;8.98;105.37
216;HTU21D;70668;48.81286795;9.14184224;2023-12-29T06:04:03;9.08;104.08
216;HTU21D;70668;48.81286795;9.14184224;2023-12-29T06:06:32;9.06;104.50
216;HTU21D;70668;48.81286795;9.14184224;2023-12-29T06:09:03;9.06;104.93
216;HTU21D;70668;48.81286795;9.14184224;2023-12-29T06:11:31;9.05;105.79
216;HTU21D;70668;48.81286795;9.14184224;2023-12-29T06:14:00;8.86;106.03
216;HTU21D;70668;48.81286795;9.14184224;2023-12-29T06:16:29;8.98;105.50
216;HTU21D;70668;48.81286795;9.14184224;2023-12-29T06:18:58;9.12;104.80
216;HTU21D;70668;48.81286795;9.14184224;2023-12-29T06:21:26;9.08;104.18
216;HTU21D;70668;48.81286795;9.14184224;2023-12-29T06:23:54;9.00;104.34
216;HTU21D;70668;48.81286795;9.14184224;2023-12-29T06:26:25;8.96;104.66
216;HTU21D;70668;48.81286795;9.14184224;2023-12-29T06:28:54;8.91;104.60
216;HTU21D;70668;48.81286795;9.14184224;2023-12-29T06:31:22;8.88;104.37
216;HTU21D;70668;48.81286795;9.14184224;2023-12-29T06:33:51;9.00;103.89
216;HTU21D;70668;48.81286795;9.14184224;2023-12-29T06:36:20;8.93;104.09
216;HTU21D;70668;48.81286795;9.14184224;2023-12-29T06:38:49;8.86;104.47
216;HTU21D;70668;48.81286795;9.14184224;2023-12-29T06:41:19;8.88;104.35
216;HTU21D;70668;48.81286795;9.14184224;2023-12-29T06:43:50;8.80;104.62
216;HTU21D;70668;48.81286795;9.14184224;2023-12-29T06:46:18;8.88;104.35
216;HTU21D;70668;48.81286795;9.14184224;2023-12-29T06:48:46;8.90;104.41
216;HTU21D;70668;48.81286795;9.14184224;2023-12-29T06:51:16;8.85;104.91
216;HTU21D;70668;48.81286795;9.14184224;2023-12-29T06:53:45;8.95;103.89
216;HTU21D;70668;48.81286795;9.14184224;2023-12-29T06:56:14;8.96;104.05
216;HTU21D;70668;48.81286795;9.14184224;2023-12-29T06:58:43;9.00;103.93
216;HTU21D;70668;48.81286795;9.14184224;2023-12-29T07:01:14;9.04;103.54
216;HTU21D;70668;48.81286795;9.14184224;2023-12-29T07:03:44;9.15;102.89
216;HTU21D;70668;48.81286795;9.14184224;2023-12-29T07:06:12;9.10;103.15
216;HTU21D;70668;48.81286795;9.14184224;2023-12-29T07:08:41;9.10;103.44
216;HTU21D;70668;48.81286795;9.14184224;2023-12-29T07:11:10;9.18;103.52
216;HTU21D;70668;48.81286795;9.14184224;2023-12-29T07:13:39;9.20;102.69
216;HTU21D;70668;48.81286795;9.14184224;2023-12-29T07:16:08;9.23;102.84
216;HTU21D;70668;48.81286795;9.14184224;2023-12-29T07:18:39;9.21;103.05
216;HTU21D;70668;48.81286795;9.14184224;2023-12-29T07:21:08;9.21;103.29
216;HTU21D;70668;48.81286795;9.14184224;2023-12-29T07:23:37;9.21;103.24
216;HTU21D;70668;48.81286795;9.14184224;2023-12-29T07:26:06;9.19;103.28
216;HTU21D;70668;48.81286795;9.14184224;2023-12-29T07:28:34;9.25;103.25
216;HTU21D;70668;48.81286795;9.14184224;2023-12-29T07:31:03;9.19;103.34
216;HTU21D;70668;48.81286795;9.14184224;2023-12-29T07:33:32;9.22;103.29
216;HTU21D;70668;48.81286795;9.14184224;2023-12-29T07:36:04;9.18;104.04
216;HTU21D;70668;48.81286795;9.14184224;2023-12-29T07:38:32;9.17;103.58
216;HTU21D;70668;48.81286795;9.14184224;2023-12-29T07:41:01;9.24;102.71
216;HTU21D;70668;48.81286795;9.14184224;2023-12-29T07:43:29;9.19;103.68
216;HTU21D;70668;48.81286795;9.14184224;2023-12-29T07:45:58;9.18;103.66
216;HTU21D;70668;48.81286795;9.14184224;2023-12-29T07:48:26;9.27;102.47
216;HTU21D;70668;48.81286795;9.14184224;2023-12-29T07:50:58;9.27;102.44
216;HTU21D;70668;48.81286795;9.14184224;2023-12-29T07:53:30;9.31;102.63
216;HTU21D;70668;48.81286795;9.14184224;2023-12-29T07:55:58;9.40;101.76
216;HTU21D;70668;48.81286795;9.14184224;2023-12-29T07:58:28;9.45;101.11
216;HTU21D;70668;48.81286795;9.14184224;2023-12-29T08:00:56;9.47;101.01
216;HTU21D;70668;48.81286795;9.14184224;2023-12-29T08:03:25;9.50;101.77
216;HTU21D;70668;48.81286795;9.14184224;2023-12-29T08:05:53;9.51;101.37
216;HTU21D;70668;48.81286795;9.14184224;2023-12-29T08:08:22;9.51;101.44
216;HTU21D;70668;48.81286795;9.14184224;2023-12-29T08:10:53;9.45;101.93
216;HTU21D;70668;48.81286795;9.14184224;2023-12-29T08:13:21;9.55;101.96
216;HTU21D;70668;48.81286795;9.14184224;2023-12-29T08:15:50;9.59;100.92
216;HTU21D;70668;48.81286795;9.14184224;2023-12-29T08:18:19;9.61;100.50
216;HTU21D;70668;48.81286795;9.14184224;2023-12-29T08:20:47;9.56;100.83
216;HTU21D;70668;48.81286795;9.14184224;2023-12-29T08:23:16;9.59;101.31
216;HTU21D;70668;48.81286795;9.14184224;2023-12-29T08:25:44;9.63;100.77
216;HTU21D;70668;48.81286795;9.14184224;2023-12-29T08:28:15;9.63;100.68
216;HTU21D;70668;48.81286795;9.14184224;2023-12-29T08:30:44;9.67;100.07
216;HTU21D;70668;48.81286795;9.14184224;2023-12-29T08:33:12;9.68;99.66
216;HTU21D;70668;48.81286795;9.14184224;2023-12-29T08:35:42;9.65;100.67
216;HTU21D;70668;48.81286795;9.14184224;2023-12-29T08:38:11;9.72;99.09
216;HTU21D;70668;48.81286795;9.14184224;2023-12-29T08:40:40;9.75;100.04
216;HTU21D;70668;48.81286795;9.14184224;2023-12-29T08:43:09;9.76;99.52
216;HTU21D;70668;48.81286795;9.14184224;2023-12-29T08:45:40;9.71;99.79
216;HTU21D;70668;48.81286795;9.14184224;2023-12-29T08:48:09;9.70;100.06
216;HTU21D;70668;48.81286795;9.14184224;2023-12-29T08:50:37;9.72;100.78
216;HTU21D;70668;48.81286795;9.14184224;2023-12-29T08:53:05;9.69;101.80
216;HTU21D;70668;48.81286795;9.14184224;2023-12-29T08:55:34;9.65;100.73
216;HTU21D;70668;48.81286795;9.14184224;2023-12-29T08:58:03;9.62;101.82
216;HTU21D;70668;48.81286795;9.14184224;2023-12-29T09:00:32;9.61;101.71
216;HTU21D;70668;48.81286795;9.14184224;2023-12-29T09:03:04;9.70;101.66
216;HTU21D;70668;48.81286795;9.14184224;2023-12-29T09:05:32;9.65;101.18
216;HTU21D;70668;48.81286795;9.14184224;2023-12-29T09:08:01;9.69;101.00
216;HTU21D;70668;48.81286795;9.14184224;2023-12-29T09:10:30;9.81;100.70
216;HTU21D;70668;48.81286795;9.14184224;2023-12-29T09:12:58;9.88;100.34
216;HTU21D;70668;48.81286795;9.14184224;2023-12-29T09:15:27;9.89;100.30
216;HTU21D;70668;48.81286795;9.14184224;2023-12-29T09:17:55;9.93;100.37
216;HTU21D;70668;48.81286795;9.14184224;2023-12-29T09:20:26;9.89;99.24
216;HTU21D;70668;48.81286795;9.14184224;2023-12-29T09:22:55;9.93;98.64
216;HTU21D;70668;48.81286795;9.14184224;2023-12-29T09:25:23;9.96;97.68
216;HTU21D;70668;48.81286795;9.14184224;2023-12-29T09:27:53;10.10;97.69
216;HTU21D;70668;48.81286795;9.14184224;2023-12-29T09:30:21;10.18;98.13
216;HTU21D;70668;48.81286795;9.14184224;2023-12-29T09:32:50;10.10;97.23
216;HTU21D;70668;48.81286795;9.14184224;2023-12-29T09:35:18;10.09;98.48
216;HTU21D;70668;48.81286795;9.14184224;2023-12-29T09:37:50;10.14;98.65
216;HTU21D;70668;48.81286795;9.14184224;2023-12-29T09:40:19;10.20;99.38
216;HTU21D;70668;48.81286795;9.14184224;2023-12-29T09:42:47;10.11;98.39
216;HTU21D;70668;48.81286795;9.14184224;2023-12-29T09:45:22;10.11;98.29
216;HTU21D;70668;48.81286795;9.14184224;2023-12-29T09:47:52;10.21;98.29
216;HTU21D;70668;48.81286795;9.14184224;2023-12-29T09:50:21;10.13;99.08
216;HTU21D;70668;48.81286795;9.14184224;2023-12-29T09:52:53;10.19;99.85
216;HTU21D;70668;48.81286795;9.14184224;2023-12-29T09:55:23;10.41;98.71
216;HTU21D;70668;48.81286795;9.14184224;2023-12-29T09:57:52;10.23;99.11
216;HTU21D;70668;48.81286795;9.14184224;2023-12-29T10:00:20;10.25;98.63
216;HTU21D;70668;48.81286795;9.14184224;2023-12-29T10:02:51;10.27;98.64
216;HTU21D;70668;48.81286795;9.14184224;2023-12-29T10:05:20;10.31;99.40
216;HTU21D;70668;48.81286795;9.14184224;2023-12-29T10:07:52;10.35;97.94
216;HTU21D;70668;48.81286795;9.14184224;2023-12-29T10:10:23;10.45;97.76
216;HTU21D;70668;48.81286795;9.14184224;2023-12-29T10:12:53;10.48;97.56
216;HTU21D;70668;48.81286795;9.14184224;2023-12-29T10:15:28;10.52;96.71
216;HTU21D;70668;48.81286795;9.14184224;2023-12-29T10:18:07;10.39;97.41
216;HTU21D;70668;48.81286795;9.14184224;2023-12-29T10:20:42;10.25;98.16
216;HTU21D;70668;48.81286795;9.14184224;2023-12-29T10:23:18;10.41;97.94
216;HTU21D;70668;48.81286795;9.14184224;2023-12-29T10:25:47;10.55;97.54
216;HTU21D;70668;48.81286795;9.14184224;2023-12-29T10:28:17;10.43;97.58
216;HTU21D;70668;48.81286795;9.14184224;2023-12-29T10:30:47;10.40;97.49
216;HTU21D;70668;48.81286795;9.14184224;2023-12-29T10:33:19;10.53;97.32
216;HTU21D;70668;48.81286795;9.14184224;2023-12-29T10:36:00;10.65;96.13
216;HTU21D;70668;48.81286795;9.14184224;2023-12-29T10:38:33;10.70;96.65
216;HTU21D;70668;48.81286795;9.14184224;2023-12-29T10:41:12;10.79;94.70
216;HTU21D;70668;48.81286795;9.14184224;2023-12-29T10:43:43;10.75;96.43
216;HTU21D;70668;48.81286795;9.14184224;2023-12-29T10:46:12;10.83;95.41
216;HTU21D;70668;48.81286795;9.14184224;2023-12-29T10:48:41;10.94;92.55
216;HTU21D;70668;48.81286795;9.14184224;2023-12-29T10:51:10;10.97;91.56
216;HTU21D;70668;48.81286795;9.14184224;2023-12-29T10:53:41;10.98;92.25
216;HTU21D;70668;48.81286795;9.14184224;2023-12-29T10:56:17;10.90;91.66
216;HTU21D;70668;48.81286795;9.14184224;2023-12-29T10:58:57;11.01;91.85
216;HTU21D;70668;48.81286795;9.14184224;2023-12-29T11:01:26;11.09;91.34
216;HTU21D;70668;48.81286795;9.14184224;2023-12-29T11:03:59;11.23;91.42
216;HTU21D;70668;48.81286795;9.14184224;2023-12-29T11:06:29;11.13;91.57
216;HTU21D;70668;48.81286795;9.14184224;2023-12-29T11:09:00;11.23;89.81
216;HTU21D;70668;48.81286795;9.14184224;2023-12-29T11:11:29;11.13;91.40
216;HTU21D;70668;48.81286795;9.14184224;2023-12-29T11:13:57;11.17;89.27
216;HTU21D;70668;48.81286795;9.14184224;2023-12-29T11:16:27;11.22;89.58
216;HTU21D;70668;48.81286795;9.14184224;2023-12-29T11:18:57;11.24;89.38
216;HTU21D;70668;48.81286795;9.14184224;2023-12-29T11:21:26;11.18;88.96
216;HTU21D;70668;48.81286795;9.14184224;2023-12-29T11:23:55;11.25;88.31
216;HTU21D;70668;48.81286795;9.14184224;2023-12-29T11:26:28;11.28;89.64
216;HTU21D;70668;48.81286795;9.14184224;2023-12-29T11:28:57;11.27;88.53
216;HTU21D;70668;48.81286795;9.14184224;2023-12-29T11:31:26;11.41;88.47
216;HTU21D;70668;48.81286795;9.14184224;2023-12-29T11:33:59;11.51;87.90
216;HTU21D;70668;48.81286795;9.14184224;2023-12-29T11:36:31;11.56;86.77
216;HTU21D;70668;48.81286795;9.14184224;2023-12-29T11:39:04;11.57;85.71
216;HTU21D;70668;48.81286795;9.14184224;2023-12-29T11:41:42;11.64;85.66
216;HTU21D;70668;48.81286795;9.14184224;2023-12-29T11:44:12;11.56;86.50
216;HTU21D;70668;48.81286795;9.14184224;2023-12-29T11:46:43;11.52;86.06
216;HTU21D;70668;48.81286795;9.14184224;2023-12-29T11:49:12;11.45;84.72
216;HTU21D;70668;48.81286795;9.14184224;2023-12-29T11:51:41;11.55;85.35
216;HTU21D;70668;48.81286795;9.14184224;2023-12-29T11:54:10;11.52;84.64
216;HTU21D;70668;48.81286795;9.14184224;2023-12-29T11:56:52;11.51;85.78
216;HTU21D;70668;48.81286795;9.14184224;2023-12-29T11:59:22;11.53;85.20
216;HTU21D;70668;48.81286795;9.14184224;2023-12-29T12:01:52;11.47;85.13
216;HTU21D;70668;48.81286795;9.14184224;2023-12-29T12:04:37;11.59;84.02
216;HTU21D;70668;48.81286795;9.14184224;2023-12-29T12:07:07;11.73;83.94
216;HTU21D;70668;48.81286795;9.14184224;2023-12-29T12:09:36;11.91;82.04
216;HTU21D;70668;48.81286795;9.14184224;2023-12-29T12:12:07;11.92;79.43
216;HTU21D;70668;48.81286795;9.14184224;2023-12-29T12:14:46;12.07;78.88
216;HTU21D;70668;48.81286795;9.14184224;2023-12-29T12:17:30;12.27;77.86
216;HTU21D;70668;48.81286795;9.14184224;2023-12-29T12:20:03;12.23;78.41
216;HTU21D;70668;48.81286795;9.14184224;2023-12-29T12:22:31;12.32;76.23
216;HTU21D;70668;48.81286795;9.14184224;2023-12-29T12:25:01;12.37;75.07
216;HTU21D;70668;48.81286795;9.14184224;2023-12-29T12:27:32;12.48;74.81
216;HTU21D;70668;48.81286795;9.14184224;2023-12-29T12:30:02;12.30;75.44
216;HTU21D;70668;48.81286795;9.14184224;2023-12-29T12:32:30;12.57;72.59
216;HTU21D;70668;48.81286795;9.14184224;2023-12-29T12:34:59;12.49;71.91
216;HTU21D;70668;48.81286795;9.14184224;2023-12-29T12:37:29;12.53;74.34
216;HTU21D;70668;48.81286795;9.14184224;2023-12-29T12:39:58;12.75;73.48
216;HTU21D;70668;48.81286795;9.14184224;2023-12-29T12:42:31;12.71;73.22
216;HTU21D;70668;48.81286795;9.14184224;2023-12-29T12:45:05;12.45;72.16
216;HTU21D;70668;48.81286795;9.14184224;2023-12-29T12:47:37;12.56;72.41
216;HTU21D;70668;48.81286795;9.14184224;2023-12-29T12:50:07;12.51;73.15
216;HTU21D;70668;48.81286795;9.14184224;2023-12-29T12:52:38;12.25;72.95
216;HTU21D;70668;48.81286795;9.14184224;2023-12-29T12:55:08;12.16;72.34
216;HTU21D;70668;48.81286795;9.14184224;2023-12-29T12:57:39;12.20;77.37
216;HTU21D;70668;48.81286795;9.14184224;2023-12-29T13:00:09;12.22;76.03
216;HTU21D;70668;48.81286795;9.14184224;2023-12-29T13:02:38;12.38;72.25
216;HTU21D;70668;48.81286795;9.14184224;2023-12-29T13:05:07;12.19;70.03
216;HTU21D;70668;48.81286795;9.14184224;2023-12-29T13:07:36;12.16;72.04
216;HTU21D;70668;48.81286795;9.14184224;2023-12-29T13:10:06;12.13;72.16
216;HTU21D;70668;48.81286795;9.14184224;2023-12-29T13:12:35;12.17;76.24
216;HTU21D;70668;48.81286795;9.14184224;2023-12-29T13:15:10;12.10;73.87
216;HTU21D;70668;48.81286795;9.14184224;2023-12-29T13:17:38;12.11;75.28
216;HTU21D;70668;48.81286795;9.14184224;2023-12-29T13:20:08;12.12;74.17
216;HTU21D;70668;48.81286795;9.14184224;2023-12-29T13:22:37;12.03;74.03
216;HTU21D;70668;48.81286795;9.14184224;2023-12-29T13:25:06;11.98;74.97
216;HTU21D;70668;48.81286795;9.14184224;2023-12-29T13:27:37;11.93;76.07
216;HTU21D;70668;48.81286795;9.14184224;2023-12-29T13:30:11;12.05;75.27
216;HTU21D;70668;48.81286795;9.14184224;2023-12-29T13:32:40;11.96;80.59
216;HTU21D;70668;48.81286795;9.14184224;2023-12-29T13:35:16;12.05;74.76
216;HTU21D;70668;48.81286795;9.14184224;2023-12-29T13:37:50;12.01;78.20
216;HTU21D;70668;48.81286795;9.14184224;2023-12-29T13:40:25;11.87;74.41
216;HTU21D;70668;48.81286795;9.14184224;2023-12-29T13:42:57;11.81;76.27
216;HTU21D;70668;48.81286795;9.14184224;2023-12-29T13:45:30;11.85;73.85
216;HTU21D;70668;48.81286795;9.14184224;2023-12-29T13:47:59;11.90;75.41
216;HTU21D;70668;48.81286795;9.14184224;2023-12-29T13:50:29;11.78;77.08
216;HTU21D;70668;48.81286795;9.14184224;2023-12-29T13:52:58;11.90;73.41